createdAt,value
2019-01-29T00:00:39.201Z,8.90
2019-01-29T00:03:41.882Z,8.97
2019-01-29T00:06:44.710Z,9.37
2019-01-29T00:09:47.395Z,9.57
2019-01-29T00:12:50.122Z,9.20
2019-01-29T00:15:52.730Z,8.70
2019-01-29T00:18:55.322Z,8.60
2019-01-29T00:21:57.947Z,9.17
2019-01-29T00:25:00.552Z,9.30
2019-01-29T00:28:03.375Z,9.20
2019-01-29T00:31:05.946Z,9.30
2019-01-29T00:34:08.585Z,9.10
2019-01-29T00:37:12.271Z,9.53
2019-01-29T00:40:15.311Z,9.30
2019-01-29T00:43:18.982Z,9.60
2019-01-29T00:46:21.572Z,9.33
2019-01-29T00:49:24.261Z,7.90
2019-01-29T00:52:26.891Z,9.60
2019-01-29T00:55:29.585Z,9.00
2019-01-29T00:58:32.273Z,8.80
2019-01-29T01:01:35.024Z,9.30
2019-01-29T01:04:37.782Z,8.70
2019-01-29T01:07:40.438Z,8.80
2019-01-29T01:10:43.021Z,9.00
2019-01-29T01:13:45.737Z,9.90
2019-01-29T01:16:48.317Z,10.10
2019-01-29T01:19:51.671Z,10.27
2019-01-29T01:22:56.396Z,9.47
2019-01-29T01:25:58.738Z,8.87
2019-01-29T01:29:01.308Z,9.83
2019-01-29T01:32:04.040Z,8.37
2019-01-29T01:35:06.790Z,8.10
2019-01-29T01:38:09.465Z,8.60
2019-01-29T01:41:12.240Z,9.23
2019-01-29T01:44:14.852Z,9.00
2019-01-29T01:47:17.466Z,8.47
2019-01-29T01:50:20.107Z,8.97
2019-01-29T01:53:22.695Z,9.70
2019-01-29T01:56:25.410Z,8.57
2019-01-29T01:59:28.056Z,8.40
2019-01-29T02:02:30.716Z,9.23
2019-01-29T02:05:33.270Z,8.80
2019-01-29T02:08:35.815Z,8.90
2019-01-29T02:11:38.430Z,9.13
2019-01-29T02:14:41.120Z,8.70
2019-01-29T02:17:43.860Z,8.40
2019-01-29T02:20:46.502Z,8.43
2019-01-29T02:23:49.073Z,8.30
2019-01-29T02:26:51.916Z,8.77
2019-01-29T02:29:54.623Z,8.57
2019-01-29T02:32:57.212Z,8.67
2019-01-29T02:35:59.969Z,9.00
2019-01-29T02:39:04.797Z,9.73
2019-01-29T02:42:08.747Z,10.50
2019-01-29T02:45:12.164Z,9.53
2019-01-29T02:48:14.846Z,9.97
2019-01-29T02:51:18.013Z,9.50
2019-01-29T02:54:20.873Z,8.90
2019-01-29T02:57:23.520Z,9.70
2019-01-29T03:00:26.775Z,9.50
2019-01-29T03:03:29.453Z,9.90
2019-01-29T03:06:32.129Z,10.70
2019-01-29T03:09:34.801Z,9.90
2019-01-29T03:12:37.510Z,10.00
2019-01-29T03:15:40.224Z,10.40
2019-01-29T03:18:42.908Z,11.00
2019-01-29T03:21:45.568Z,10.10
2019-01-29T03:24:48.245Z,11.13
2019-01-29T03:27:50.831Z,11.23
2019-01-29T03:30:53.435Z,10.90
2019-01-29T03:33:56.094Z,10.63
2019-01-29T03:36:58.688Z,11.03
2019-01-29T03:40:01.528Z,9.93
2019-01-29T03:43:04.432Z,10.33
2019-01-29T03:46:07.260Z,10.10
2019-01-29T03:49:09.913Z,10.00
2019-01-29T03:52:12.519Z,10.07
2019-01-29T03:55:15.600Z,9.30
2019-01-29T03:58:18.197Z,10.57
2019-01-29T04:01:20.840Z,9.63
2019-01-29T04:04:23.551Z,9.80
2019-01-29T04:07:26.123Z,8.90
2019-01-29T04:10:28.709Z,9.00
2019-01-29T04:13:31.394Z,9.60
2019-01-29T04:16:34.141Z,9.47
2019-01-29T04:19:36.781Z,9.23
2019-01-29T04:22:39.549Z,9.40
2019-01-29T04:25:42.109Z,8.57
2019-01-29T04:28:44.726Z,8.73
2019-01-29T04:31:47.256Z,8.30
2019-01-29T04:34:50.004Z,7.47
2019-01-29T04:37:52.669Z,7.67
2019-01-29T04:40:55.317Z,8.00
2019-01-29T04:43:57.895Z,7.93
2019-01-29T04:47:00.527Z,8.17
2019-01-29T04:50:04.346Z,8.10
2019-01-29T04:53:06.996Z,8.30
2019-01-29T04:56:09.734Z,8.77
2019-01-29T04:59:12.409Z,9.47
2019-01-29T05:02:17.208Z,9.07
2019-01-29T05:05:20.557Z,9.30
2019-01-29T05:08:23.319Z,10.73
2019-01-29T05:11:25.982Z,11.77
2019-01-29T05:14:29.454Z,10.67
2019-01-29T05:17:32.121Z,10.53
2019-01-29T05:20:34.783Z,10.83
2019-01-29T05:23:37.434Z,10.47
2019-01-29T05:26:40.055Z,9.87
2019-01-29T05:29:42.698Z,10.20
2019-01-29T05:32:45.454Z,10.87
2019-01-29T05:35:48.180Z,10.87
2019-01-29T05:38:50.807Z,9.40
2019-01-29T05:41:53.639Z,9.90
2019-01-29T05:44:56.300Z,8.43
2019-01-29T05:47:58.858Z,9.30
2019-01-29T05:51:03.222Z,8.97
2019-01-29T05:54:05.875Z,9.53
2019-01-29T05:57:08.471Z,9.20
2019-01-29T06:00:24.018Z,9.43
2019-01-29T06:03:26.749Z,9.53
2019-01-29T06:06:30.769Z,8.57
2019-01-29T06:09:33.540Z,8.33
2019-01-29T06:12:36.193Z,9.23
2019-01-29T06:15:38.991Z,9.27
2019-01-29T06:18:41.863Z,8.50
2019-01-29T06:21:44.445Z,8.33
2019-01-29T06:24:47.071Z,10.60
2019-01-29T06:27:49.825Z,9.93
2019-01-29T06:30:52.505Z,8.87
2019-01-29T06:33:55.077Z,8.83
2019-01-29T06:36:57.645Z,9.57
2019-01-29T06:40:00.253Z,9.10
2019-01-29T06:43:02.965Z,9.47
2019-01-29T06:46:09.385Z,10.60
2019-01-29T06:49:12.079Z,9.37
2019-01-29T06:52:14.775Z,8.97
2019-01-29T06:55:18.824Z,9.23
2019-01-29T06:58:21.519Z,9.27
2019-01-29T07:01:25.110Z,8.70
2019-01-29T07:04:27.749Z,8.80
2019-01-29T07:07:30.338Z,8.57
2019-01-29T07:10:33.015Z,8.47
2019-01-29T07:13:35.513Z,9.40
2019-01-29T07:16:48.150Z,9.37
2019-01-29T07:19:53.533Z,10.53
2019-01-29T07:22:56.188Z,8.70
2019-01-29T07:25:58.769Z,10.23
2019-01-29T07:29:01.449Z,10.07
2019-01-29T07:32:04.207Z,10.37
2019-01-29T07:35:07.619Z,10.80
2019-01-29T07:38:11.189Z,10.33
2019-01-29T07:41:13.834Z,10.80
2019-01-29T07:44:16.459Z,11.43
2019-01-29T07:47:19.030Z,11.33
2019-01-29T07:50:22.623Z,11.60
2019-01-29T07:53:25.285Z,12.80
2019-01-29T07:56:29.185Z,11.73
2019-01-29T07:59:33.121Z,13.40
2019-01-29T08:02:36.083Z,11.90
2019-01-29T08:05:38.691Z,11.17
2019-01-29T08:08:41.357Z,12.03
2019-01-29T08:11:44.009Z,12.60
2019-01-29T08:14:46.634Z,11.87
2019-01-29T08:17:49.270Z,11.83
2019-01-29T08:20:51.975Z,13.13
2019-01-29T08:23:54.625Z,12.97
2019-01-29T08:26:57.213Z,13.80
2019-01-29T08:29:59.888Z,13.17
2019-01-29T08:33:02.509Z,12.73
2019-01-29T08:36:05.193Z,13.13
2019-01-29T08:39:08.316Z,13.43
2019-01-29T08:42:11.278Z,13.13
2019-01-29T08:45:14.354Z,14.13
2019-01-29T08:48:17.110Z,12.73
2019-01-29T08:51:19.679Z,13.50
2019-01-29T08:54:22.423Z,14.00
2019-01-29T08:57:25.075Z,13.20
2019-01-29T09:00:27.825Z,14.50
2019-01-29T09:03:30.439Z,12.90
2019-01-29T09:06:33.018Z,13.43
2019-01-29T09:09:35.732Z,13.07
2019-01-29T09:12:38.418Z,13.80
2019-01-29T09:15:41.026Z,14.10
2019-01-29T09:18:43.584Z,13.23
2019-01-29T09:21:46.199Z,13.50
2019-01-29T09:24:48.929Z,11.50
2019-01-29T09:27:51.548Z,13.23
2019-01-29T09:30:54.139Z,13.37
2019-01-29T09:33:56.960Z,13.70
2019-01-29T09:36:59.729Z,13.80
2019-01-29T09:40:02.930Z,12.67
2019-01-29T09:43:08.077Z,14.03
2019-01-29T09:46:10.710Z,14.27
2019-01-29T09:49:13.532Z,13.60
2019-01-29T09:52:16.263Z,13.43
2019-01-29T09:55:28.098Z,13.60
2019-01-29T09:58:24.699Z,14.87
2019-01-29T10:01:27.312Z,15.97
2019-01-29T10:04:29.865Z,15.10
2019-01-29T10:07:32.482Z,17.47
2019-01-29T10:10:35.064Z,15.17
2019-01-29T10:13:37.884Z,17.13
2019-01-29T10:16:40.438Z,16.00
2019-01-29T10:19:43.027Z,19.73
2019-01-29T10:22:45.592Z,16.60
2019-01-29T10:25:48.224Z,22.90
2019-01-29T10:28:50.866Z,15.90
2019-01-29T10:31:53.523Z,14.20
2019-01-29T10:34:56.097Z,13.20
2019-01-29T10:37:58.679Z,14.03
2019-01-29T10:41:01.322Z,25.60
2019-01-29T10:44:04.168Z,14.40
2019-01-29T10:47:08.082Z,15.13
2019-01-29T10:50:13.569Z,17.00
2019-01-29T10:53:16.320Z,24.90
2019-01-29T10:56:18.962Z,15.87
2019-01-29T10:59:21.619Z,17.83
2019-01-29T11:02:24.233Z,16.83
2019-01-29T11:05:27.050Z,16.20
2019-01-29T11:08:29.687Z,17.50
2019-01-29T11:11:32.307Z,13.83
2019-01-29T11:14:34.872Z,13.60
2019-01-29T11:17:37.563Z,14.30
2019-01-29T11:20:40.323Z,12.73
2019-01-29T11:23:43.006Z,14.10
2019-01-29T11:26:45.629Z,14.30
2019-01-29T11:29:49.337Z,14.30
2019-01-29T11:32:52.107Z,16.40
2019-01-29T11:35:54.891Z,19.23
2019-01-29T11:38:57.617Z,15.97
2019-01-29T11:42:00.212Z,16.40
2019-01-29T11:45:04.227Z,15.93
2019-01-29T11:48:07.722Z,16.63
2019-01-29T11:51:11.362Z,24.40
2019-01-29T11:54:14.024Z,21.50
2019-01-29T11:57:16.624Z,31.07
2019-01-29T12:00:27.239Z,23.60
2019-01-29T12:03:29.857Z,23.53
2019-01-29T12:06:32.457Z,48.17
2019-01-29T12:09:35.042Z,32.37
2019-01-29T12:12:37.686Z,22.30
2019-01-29T12:15:40.278Z,29.93
2019-01-29T12:18:42.810Z,20.13
2019-01-29T12:21:45.424Z,20.50
2019-01-29T12:24:48.119Z,18.67
2019-01-29T12:27:50.810Z,20.50
2019-01-29T12:30:53.403Z,20.60
2019-01-29T12:33:56.143Z,20.60
2019-01-29T12:36:58.874Z,23.00
2019-01-29T12:40:01.403Z,19.27
2019-01-29T12:43:04.469Z,19.10
2019-01-29T12:46:07.147Z,19.90
2019-01-29T12:49:09.740Z,19.20
2019-01-29T12:52:22.494Z,17.73
2019-01-29T12:55:25.196Z,20.60
2019-01-29T12:58:27.974Z,17.40
2019-01-29T13:01:30.691Z,18.07
2019-01-29T13:04:37.149Z,19.33
2019-01-29T13:07:44.003Z,18.60
2019-01-29T13:10:46.638Z,18.40
2019-01-29T13:13:49.363Z,18.20
2019-01-29T13:16:52.024Z,16.37
2019-01-29T13:19:54.720Z,16.13
2019-01-29T13:22:57.436Z,16.30
2019-01-29T13:26:00.122Z,13.80
2019-01-29T13:29:03.018Z,15.23
2019-01-29T13:32:05.670Z,14.13
2019-01-29T13:35:09.675Z,18.40
2019-01-29T13:38:12.671Z,14.10
2019-01-29T13:41:15.282Z,14.23
2019-01-29T13:44:17.982Z,13.37
2019-01-29T13:47:20.687Z,15.90
2019-01-29T13:50:27.338Z,15.00
2019-01-29T13:53:30.029Z,13.70
2019-01-29T13:56:38.756Z,14.60
2019-01-29T13:59:37.432Z,18.87
2019-01-29T14:02:40.160Z,16.07
2019-01-29T14:05:42.722Z,14.77
2019-01-29T14:08:46.307Z,13.57
2019-01-29T14:11:49.072Z,15.10
2019-01-29T14:14:51.698Z,14.53
2019-01-29T14:17:54.367Z,15.20
2019-01-29T14:20:58.092Z,15.90
2019-01-29T14:24:02.290Z,15.87
2019-01-29T14:27:06.728Z,19.27
2019-01-29T14:30:19.079Z,19.33
2019-01-29T14:33:21.764Z,16.20
2019-01-29T14:36:24.590Z,15.60
2019-01-29T14:39:51.528Z,16.70
2019-01-29T14:42:54.231Z,15.60
2019-01-29T14:45:58.499Z,16.10
2019-01-29T14:49:01.447Z,16.20
2019-01-29T14:52:04.353Z,15.53
2019-01-29T14:55:08.323Z,13.90
2019-01-29T14:58:10.913Z,14.50
2019-01-29T15:01:13.982Z,14.60
2019-01-29T15:04:16.649Z,14.60
2019-01-29T15:07:19.332Z,13.47
2019-01-29T15:10:22.084Z,14.80
2019-01-29T15:13:24.864Z,16.73
2019-01-29T15:16:51.557Z,16.20
2019-01-29T15:19:54.123Z,13.60
2019-01-29T15:22:56.767Z,15.20
2019-01-29T15:25:59.402Z,14.63
2019-01-29T15:29:01.977Z,15.70
2019-01-29T15:32:10.767Z,14.30
2019-01-29T15:35:13.386Z,14.87
2019-01-29T15:38:16.233Z,13.80
2019-01-29T15:41:19.058Z,13.93
2019-01-29T15:44:21.719Z,13.40
2019-01-29T15:47:24.450Z,12.93
2019-01-29T15:50:27.298Z,13.20
2019-01-29T15:53:29.962Z,14.10
2019-01-29T15:56:32.802Z,14.63
2019-01-29T15:59:42.792Z,12.40
2019-01-29T16:02:40.112Z,12.90
2019-01-29T16:05:42.812Z,12.83
2019-01-29T16:08:45.531Z,12.40
2019-01-29T16:11:48.293Z,12.83
2019-01-29T16:14:51.079Z,12.50
2019-01-29T16:17:54.900Z,13.47
2019-01-29T16:20:57.798Z,13.40
2019-01-29T16:24:00.473Z,12.80
2019-01-29T16:27:06.910Z,13.80
2019-01-29T16:30:11.250Z,12.93
2019-01-29T16:33:14.427Z,12.20
2019-01-29T16:36:17.226Z,14.10
2019-01-29T16:39:20.105Z,15.37
2019-01-29T16:42:28.132Z,13.00
2019-01-29T16:45:36.247Z,13.80
2019-01-29T16:48:38.989Z,13.33
2019-01-29T16:51:43.277Z,12.43
2019-01-29T16:54:45.915Z,12.80
2019-01-29T16:57:49.013Z,12.40
2019-01-29T17:00:51.705Z,13.93
2019-01-29T17:03:54.395Z,14.00
2019-01-29T17:06:57.082Z,13.60
2019-01-29T17:09:59.805Z,15.23
2019-01-29T17:13:02.506Z,13.90
2019-01-29T17:16:05.221Z,12.80
2019-01-29T17:19:11.097Z,15.30
2019-01-29T17:22:13.777Z,13.70
2019-01-29T17:25:16.651Z,12.00
2019-01-29T17:28:19.222Z,11.67
2019-01-29T17:31:21.911Z,13.40
2019-01-29T17:34:24.589Z,14.00
2019-01-29T17:37:27.265Z,11.10
2019-01-29T17:40:30.110Z,13.33
2019-01-29T17:43:47.331Z,14.03
2019-01-29T17:46:49.982Z,14.27
2019-01-29T17:49:52.788Z,11.57
2019-01-29T17:52:55.450Z,10.77
2019-01-29T17:55:58.219Z,11.33
2019-01-29T17:59:01.012Z,11.60
2019-01-29T18:02:04.121Z,12.07
2019-01-29T18:05:06.772Z,10.73
2019-01-29T18:08:09.347Z,10.87
2019-01-29T18:11:11.967Z,11.00
2019-01-29T18:14:16.396Z,11.53
2019-01-29T18:17:19.057Z,11.40
2019-01-29T18:20:23.592Z,13.83
2019-01-29T18:23:26.273Z,10.40
2019-01-29T18:26:28.995Z,10.63
2019-01-29T18:29:31.706Z,11.90
2019-01-29T18:32:34.496Z,9.17
2019-01-29T18:35:37.198Z,10.40
2019-01-29T18:38:41.366Z,10.20
2019-01-29T18:41:47.182Z,10.93
2019-01-29T18:44:49.928Z,10.53
2019-01-29T18:47:52.692Z,12.37
2019-01-29T18:50:55.452Z,11.83
2019-01-29T18:53:59.826Z,13.40
2019-01-29T18:57:02.635Z,10.70
2019-01-29T19:00:08.517Z,10.40
2019-01-29T19:03:11.222Z,12.00
2019-01-29T19:06:13.825Z,11.10
2019-01-29T19:09:17.546Z,13.83
2019-01-29T19:12:23.391Z,11.90
2019-01-29T19:15:26.173Z,14.30
2019-01-29T19:18:30.754Z,11.93
2019-01-29T19:21:34.610Z,12.77
2019-01-29T19:24:37.282Z,11.33
2019-01-29T19:27:39.996Z,10.97
2019-01-29T19:30:42.751Z,11.50
2019-01-29T19:33:45.525Z,12.03
2019-01-29T19:36:48.284Z,10.47
2019-01-29T19:39:51.026Z,10.20
2019-01-29T19:42:53.745Z,9.70
2019-01-29T19:45:56.591Z,13.30
2019-01-29T19:48:59.320Z,14.20
2019-01-29T19:52:02.095Z,9.87
2019-01-29T19:55:05.125Z,10.93
2019-01-29T19:58:09.580Z,10.37
2019-01-29T20:01:12.330Z,11.03
2019-01-29T20:04:15.124Z,9.43
2019-01-29T20:07:17.865Z,10.83
2019-01-29T20:10:20.955Z,10.13
2019-01-29T20:13:23.695Z,10.80
2019-01-29T20:16:26.372Z,11.40
2019-01-29T20:19:29.015Z,11.70
2019-01-29T20:22:31.834Z,11.17
2019-01-29T20:25:34.702Z,10.80
2019-01-29T20:28:42.425Z,9.50
2019-01-29T20:31:42.057Z,11.13
2019-01-29T20:34:47.156Z,10.87
2019-01-29T20:37:49.888Z,11.33
2019-01-29T20:40:52.631Z,11.40
2019-01-29T20:43:55.329Z,11.70
2019-01-29T20:46:58.069Z,10.80
2019-01-29T20:50:00.925Z,10.90
2019-01-29T20:53:03.749Z,10.87
2019-01-29T20:56:06.505Z,10.40
2019-01-29T20:59:09.138Z,10.77
2019-01-29T21:02:11.874Z,9.80
2019-01-29T21:05:14.940Z,11.00
2019-01-29T21:08:17.641Z,10.97
2019-01-29T21:11:20.225Z,11.77
2019-01-29T21:14:22.820Z,10.47
2019-01-29T21:17:25.449Z,11.87
2019-01-29T21:20:29.958Z,10.00
2019-01-29T21:23:33.492Z,11.97
2019-01-29T21:26:36.214Z,11.90
2019-01-29T21:29:38.825Z,11.17
2019-01-29T21:32:41.452Z,11.40
2019-01-29T21:35:44.207Z,11.10
2019-01-29T21:38:46.831Z,11.47
2019-01-29T21:41:49.512Z,12.30
2019-01-29T21:44:52.106Z,12.27
2019-01-29T21:47:56.153Z,11.20
2019-01-29T21:50:58.860Z,11.80
2019-01-29T21:54:01.676Z,11.73
2019-01-29T21:57:04.461Z,12.13
2019-01-29T22:00:13.836Z,12.40
2019-01-29T22:03:16.601Z,12.10
2019-01-29T22:06:19.369Z,13.77
2019-01-29T22:09:23.933Z,12.87
2019-01-29T22:12:26.620Z,12.40
2019-01-29T22:15:31.091Z,12.33
2019-01-29T22:18:33.815Z,12.87
2019-01-29T22:21:36.571Z,12.10
2019-01-29T22:24:39.225Z,12.83
2019-01-29T22:27:41.908Z,13.17
2019-01-29T22:30:44.675Z,12.57
2019-01-29T22:33:47.270Z,12.70
2019-01-29T22:36:49.906Z,13.30
2019-01-29T22:39:52.649Z,13.43
2019-01-29T22:42:56.404Z,14.10
2019-01-29T22:45:59.116Z,13.70
2019-01-29T22:49:01.706Z,13.67
2019-01-29T22:52:04.487Z,12.97
2019-01-29T22:55:07.629Z,13.70
2019-01-29T22:58:12.683Z,13.23
2019-01-29T23:01:23.908Z,12.67
2019-01-29T23:04:29.118Z,13.07
2019-01-29T23:07:37.198Z,12.23
2019-01-29T23:10:39.914Z,13.00
2019-01-29T23:13:42.633Z,11.43
2019-01-29T23:16:45.373Z,10.70
2019-01-29T23:19:48.055Z,11.27
2019-01-29T23:22:50.828Z,11.07
2019-01-29T23:25:55.190Z,11.37
2019-01-29T23:28:57.809Z,10.70
2019-01-29T23:32:00.399Z,11.50
2019-01-29T23:35:03.935Z,11.40
2019-01-29T23:38:06.763Z,11.40
2019-01-29T23:41:09.334Z,12.10
2019-01-29T23:44:12.139Z,11.40
2019-01-29T23:47:14.789Z,11.27
2019-01-29T23:50:17.465Z,11.00
2019-01-29T23:53:20.030Z,10.70
2019-01-29T23:56:22.738Z,12.23
2019-01-29T23:59:25.396Z,11.80
